createdAt,value
2022-08-22T00:02:30.574Z,19.90
2022-08-22T00:02:45.527Z,22.10
2022-08-22T00:02:46.449Z,20.70
2022-08-22T00:02:55.327Z,20.20
2022-08-22T00:03:00.352Z,20.30
2022-08-22T00:03:02.260Z,20.30
2022-08-22T00:03:08.632Z,20.70
2022-08-22T00:03:11.472Z,22.00
2022-08-22T00:05:28.715Z,19.90
2022-08-22T00:08:10.623Z,19.60
2022-08-22T00:11:08.777Z,19.80
2022-08-22T00:14:00.065Z,19.80
2022-08-22T00:16:37.309Z,19.90
2022-08-22T00:19:25.757Z,19.90
2022-08-22T00:22:00.040Z,19.90
2022-08-22T00:25:01.294Z,19.70
2022-08-22T00:27:37.188Z,19.80
2022-08-22T00:30:15.909Z,20.00
2022-08-22T00:32:49.014Z,19.80
2022-08-22T00:35:19.368Z,19.80
2022-08-22T00:38:00.000Z,19.80
2022-08-22T00:40:45.586Z,19.80
2022-08-22T00:43:12.644Z,19.70
2022-08-22T00:45:39.888Z,19.60
2022-08-22T00:48:41.420Z,19.80
2022-08-22T00:51:57.960Z,19.80
2022-08-22T00:54:38.613Z,19.30
2022-08-22T00:57:20.073Z,19.90
2022-08-22T01:00:07.460Z,19.70
2022-08-22T01:03:00.688Z,19.70
2022-08-22T01:05:38.866Z,19.70
2022-08-22T01:08:22.301Z,19.70
2022-08-22T01:11:04.600Z,19.80
2022-08-22T01:13:31.949Z,20.10
2022-08-22T01:16:44.644Z,20.30
2022-08-22T01:19:14.850Z,19.90
2022-08-22T01:22:13.950Z,19.90
2022-08-22T01:25:18.438Z,20.00
2022-08-22T01:28:27.515Z,19.90
2022-08-22T01:31:19.097Z,19.50
2022-08-22T01:34:13.867Z,19.60
2022-08-22T01:37:07.705Z,19.30
2022-08-22T01:39:49.127Z,19.00
2022-08-22T01:42:36.938Z,18.80
2022-08-22T01:45:27.420Z,19.30
2022-08-22T01:48:12.801Z,18.90
2022-08-22T01:50:43.854Z,19.30
2022-08-22T01:53:14.536Z,19.10
2022-08-22T01:56:00.180Z,19.00
2022-08-22T01:58:35.289Z,19.10
2022-08-22T02:01:40.725Z,18.80
2022-08-22T02:04:22.356Z,19.00
2022-08-22T02:07:14.406Z,19.00
2022-08-22T02:10:50.474Z,18.80
2022-08-22T02:13:36.402Z,19.10
2022-08-22T02:16:50.579Z,18.80
2022-08-22T02:19:17.848Z,19.00
2022-08-22T02:21:48.028Z,18.70
2022-08-22T02:24:33.128Z,19.00
2022-08-22T02:27:12.397Z,19.10
2022-08-22T02:29:48.864Z,18.70
2022-08-22T02:32:37.436Z,19.10
2022-08-22T02:35:13.083Z,19.50
2022-08-22T02:38:07.918Z,19.10
2022-08-22T02:40:58.984Z,19.00
2022-08-22T02:43:39.630Z,19.10
2022-08-22T02:46:25.167Z,19.10
2022-08-22T02:49:28.503Z,19.30
2022-08-22T02:52:17.453Z,16.00
2022-08-22T02:55:09.105Z,19.20
2022-08-22T02:58:05.511Z,19.00
2022-08-22T03:00:48.970Z,19.30
2022-08-22T03:03:21.983Z,19.10
2022-08-22T03:06:19.929Z,19.10
2022-08-22T03:09:14.479Z,19.50
2022-08-22T03:12:05.638Z,19.10
2022-08-22T03:14:41.489Z,19.20
2022-08-22T03:17:18.041Z,19.10
2022-08-22T03:19:55.261Z,19.10
2022-08-22T03:22:43.832Z,19.20
2022-08-22T03:25:34.237Z,19.10
2022-08-22T03:28:07.281Z,19.00
2022-08-22T03:30:38.974Z,19.10
2022-08-22T03:33:35.604Z,19.00
2022-08-22T03:36:14.793Z,17.30
2022-08-22T03:39:14.959Z,19.10
2022-08-22T03:42:19.634Z,19.10
2022-08-22T03:45:07.460Z,19.20
2022-08-22T03:47:55.617Z,19.20
2022-08-22T03:50:31.941Z,19.20
2022-08-22T03:53:13.782Z,19.50
2022-08-22T03:56:05.258Z,19.00
2022-08-22T03:59:10.137Z,19.40
2022-08-22T04:02:31.497Z,19.10
2022-08-22T04:05:00.633Z,19.40
2022-08-22T04:08:03.390Z,19.60
2022-08-22T04:10:50.751Z,19.40
2022-08-22T04:13:47.059Z,19.10
2022-08-22T04:16:51.249Z,19.90
2022-08-22T04:19:45.851Z,19.50
2022-08-22T04:22:28.980Z,19.60
2022-08-22T04:25:12.953Z,20.00
2022-08-22T04:27:58.066Z,19.70
2022-08-22T04:30:49.989Z,19.80
2022-08-22T04:33:28.520Z,19.70
2022-08-22T04:36:20.475Z,19.60
2022-08-22T04:38:54.901Z,19.90
2022-08-22T04:41:28.919Z,19.80
2022-08-22T04:44:07.729Z,19.90
2022-08-22T04:47:02.871Z,20.10
2022-08-22T04:49:37.539Z,20.10
2022-08-22T04:52:16.724Z,20.50
2022-08-22T04:54:51.131Z,20.40
2022-08-22T04:57:42.923Z,20.20
2022-08-22T05:00:12.611Z,21.10
2022-08-22T05:02:49.167Z,20.40
2022-08-22T05:05:26.219Z,20.40
2022-08-22T05:07:58.606Z,20.50
2022-08-22T05:10:37.908Z,20.30
2022-08-22T05:13:15.319Z,20.40
2022-08-22T05:15:47.135Z,20.60
2022-08-22T05:18:36.518Z,20.70
2022-08-22T05:21:07.865Z,20.90
2022-08-22T05:23:55.813Z,20.90
2022-08-22T05:26:23.400Z,21.00
2022-08-22T05:28:56.628Z,21.00
2022-08-22T05:31:31.845Z,21.20
2022-08-22T05:34:13.775Z,21.30
2022-08-22T05:36:46.148Z,21.40
2022-08-22T05:39:27.978Z,21.20
2022-08-22T05:41:58.389Z,21.10
2022-08-22T05:44:30.776Z,21.20
2022-08-22T05:46:58.124Z,21.60
2022-08-22T05:49:47.206Z,21.60
2022-08-22T05:52:33.420Z,21.70
2022-08-22T05:55:35.664Z,21.60
2022-08-22T05:58:18.114Z,21.70
2022-08-22T06:00:53.697Z,21.80
2022-08-22T06:03:46.181Z,21.90
2022-08-22T06:06:18.576Z,21.80
2022-08-22T06:09:06.499Z,22.30
2022-08-22T06:11:52.034Z,22.10
2022-08-22T06:14:46.044Z,22.20
2022-08-22T06:17:20.382Z,22.20
2022-08-22T06:19:51.183Z,22.40
2022-08-22T06:22:26.031Z,22.40
2022-08-22T06:25:06.078Z,22.80
2022-08-22T06:27:34.624Z,22.60
2022-08-22T06:30:04.060Z,22.40
2022-08-22T06:32:59.298Z,22.40
2022-08-22T06:36:05.657Z,22.50
2022-08-22T06:38:53.435Z,22.90
2022-08-22T06:41:22.571Z,22.80
2022-08-22T06:43:54.748Z,22.60
2022-08-22T06:46:23.498Z,22.50
2022-08-22T06:49:01.586Z,22.80
2022-08-22T06:51:29.920Z,23.00
2022-08-22T06:54:01.877Z,23.40
2022-08-22T06:56:41.825Z,24.90
2022-08-22T06:59:14.974Z,23.30
2022-08-22T07:01:55.699Z,23.30
2022-08-22T07:04:26.770Z,23.90
2022-08-22T07:06:57.272Z,23.60
2022-08-22T07:09:40.548Z,23.90
2022-08-22T07:12:16.901Z,23.50
2022-08-22T07:14:51.433Z,23.70
2022-08-22T07:17:25.254Z,24.00
2022-08-22T07:20:18.515Z,24.00
2022-08-22T07:22:57.851Z,24.60
2022-08-22T07:25:26.272Z,24.20
2022-08-22T07:28:08.962Z,24.20
2022-08-22T07:31:11.306Z,24.10
2022-08-22T07:33:52.155Z,24.80
2022-08-22T07:36:38.654Z,24.80
2022-08-22T07:39:20.538Z,24.20
2022-08-22T07:42:00.693Z,24.00
2022-08-22T07:44:38.576Z,24.00
2022-08-22T07:47:17.921Z,23.70
2022-08-22T07:49:57.830Z,23.80
2022-08-22T07:52:26.438Z,23.70
2022-08-22T07:54:58.386Z,24.20
2022-08-22T07:57:28.688Z,24.60
2022-08-22T08:00:00.079Z,25.00
2022-08-22T08:02:28.467Z,25.00
2022-08-22T08:04:57.701Z,24.90
2022-08-22T08:07:29.155Z,25.00
2022-08-22T08:10:07.984Z,25.00
2022-08-22T08:12:56.141Z,25.00
2022-08-22T08:15:33.126Z,24.90
2022-08-22T08:18:05.582Z,23.60
2022-08-22T08:20:36.006Z,25.20
2022-08-22T08:23:07.363Z,25.60
2022-08-22T08:26:08.286Z,25.20
2022-08-22T08:28:42.847Z,25.60
2022-08-22T08:31:16.771Z,26.00
2022-08-22T08:33:48.009Z,25.80
2022-08-22T08:36:26.447Z,25.80
2022-08-22T08:42:05.486Z,26.20
2022-08-22T08:45:05.084Z,26.30
2022-08-22T08:47:50.949Z,27.00
2022-08-22T08:50:34.799Z,26.50
2022-08-22T08:53:25.011Z,27.00
2022-08-22T08:56:27.355Z,27.80
2022-08-22T08:58:54.595Z,26.60
2022-08-22T09:01:49.594Z,26.90
2022-08-22T09:04:27.778Z,27.40
2022-08-22T09:07:01.674Z,26.90
2022-08-22T09:09:43.923Z,26.90
2022-08-22T09:12:19.868Z,27.10
2022-08-22T09:18:19.907Z,27.50
2022-08-22T09:21:27.639Z,27.90
2022-08-22T09:24:20.342Z,28.80
2022-08-22T09:27:12.074Z,28.90
2022-08-22T09:29:54.581Z,29.40
2022-08-22T09:32:36.242Z,28.40
2022-08-22T09:35:32.438Z,28.10
2022-08-22T09:38:13.208Z,28.50
2022-08-22T09:41:00.190Z,28.10
2022-08-22T09:43:33.777Z,28.40
2022-08-22T09:46:31.585Z,29.00
2022-08-22T09:49:20.851Z,29.20
2022-08-22T09:52:15.140Z,29.00
2022-08-22T09:55:24.243Z,28.00
2022-08-22T09:58:40.674Z,27.90
2022-08-22T10:01:32.838Z,28.40
2022-08-22T10:04:22.057Z,28.70
2022-08-22T10:07:38.283Z,30.30
2022-08-22T10:10:39.468Z,30.80
2022-08-22T10:13:41.804Z,31.10
2022-08-22T10:16:14.936Z,32.00
2022-08-22T10:19:05.288Z,31.70
2022-08-22T10:21:48.364Z,33.90
2022-08-22T10:24:25.283Z,33.20
2022-08-22T10:27:02.092Z,34.30
2022-08-22T10:29:52.300Z,32.50
2022-08-22T10:32:44.772Z,33.10
2022-08-22T10:36:04.897Z,30.90
2022-08-22T10:38:44.193Z,31.40
2022-08-22T10:41:39.019Z,32.30
2022-08-22T10:44:10.953Z,31.90
2022-08-22T10:47:15.703Z,30.80
2022-08-22T10:50:12.874Z,31.30
2022-08-22T10:52:48.185Z,32.20
2022-08-22T10:55:24.559Z,32.30
2022-08-22T10:58:04.780Z,32.90
2022-08-22T11:00:54.453Z,33.30
2022-08-22T11:03:51.273Z,32.70
2022-08-22T11:06:50.505Z,32.80
2022-08-22T11:09:39.496Z,33.50
2022-08-22T11:12:35.104Z,33.70
2022-08-22T11:15:28.224Z,33.50
2022-08-22T11:18:16.309Z,33.10
2022-08-22T11:20:49.609Z,34.70
2022-08-22T11:23:34.877Z,32.80
2022-08-22T11:26:23.056Z,33.70
2022-08-22T11:29:41.179Z,33.00
2022-08-22T11:32:28.712Z,31.20
2022-08-22T11:35:24.115Z,31.60
2022-08-22T11:38:15.105Z,31.90
2022-08-22T11:40:55.756Z,30.70
2022-08-22T11:43:53.704Z,31.10
2022-08-22T11:46:35.502Z,31.50
2022-08-22T11:49:27.740Z,34.20
2022-08-22T11:52:20.076Z,35.00
2022-08-22T11:55:24.271Z,33.80
2022-08-22T11:57:59.172Z,34.90
2022-08-22T12:00:35.240Z,32.80
2022-08-22T12:03:55.674Z,31.20
2022-08-22T12:06:54.500Z,31.60
2022-08-22T12:10:13.749Z,32.50
2022-08-22T12:12:50.817Z,31.50
2022-08-22T12:15:48.991Z,31.50
2022-08-22T12:18:39.351Z,31.40
2022-08-22T12:21:38.573Z,30.50
2022-08-22T12:24:21.135Z,30.50
2022-08-22T12:27:12.820Z,29.70
2022-08-22T12:29:54.724Z,29.80
2022-08-22T12:32:57.454Z,30.00
2022-08-22T12:35:55.461Z,29.80
2022-08-22T12:38:36.025Z,29.50
2022-08-22T12:41:13.851Z,29.20
2022-08-22T12:44:28.738Z,28.90
2022-08-22T12:47:35.199Z,29.00
2022-08-22T12:50:17.525Z,28.90
2022-08-22T12:53:03.436Z,29.10
2022-08-22T12:55:52.137Z,28.80
2022-08-22T12:58:34.012Z,28.90
2022-08-22T13:01:07.208Z,29.00
2022-08-22T13:03:44.045Z,29.20
2022-08-22T13:06:50.013Z,29.40
2022-08-22T13:09:28.832Z,29.70
2022-08-22T13:12:24.926Z,29.40
2022-08-22T13:14:59.918Z,29.10
2022-08-22T13:17:28.085Z,29.00
2022-08-22T13:19:57.587Z,28.60
2022-08-22T13:22:29.143Z,29.00
2022-08-22T13:25:01.150Z,29.10
2022-08-22T13:27:51.121Z,29.40
2022-08-22T13:30:23.356Z,29.00
2022-08-22T13:32:55.145Z,29.00
2022-08-22T13:35:33.430Z,28.80
2022-08-22T13:38:12.509Z,28.60
2022-08-22T13:40:47.409Z,28.50
2022-08-22T13:43:21.240Z,28.50
2022-08-22T13:46:04.895Z,28.40
2022-08-22T13:49:00.885Z,28.40
2022-08-22T13:51:49.968Z,28.40
2022-08-22T13:55:04.631Z,27.80
2022-08-22T13:57:42.391Z,28.30
2022-08-22T14:00:35.898Z,28.30
2022-08-22T14:03:08.411Z,28.30
2022-08-22T14:05:41.880Z,28.30
2022-08-22T14:08:21.548Z,28.20
2022-08-22T14:10:55.606Z,28.20
2022-08-22T14:13:36.777Z,28.20
2022-08-22T14:16:26.748Z,28.30
2022-08-22T14:18:58.800Z,28.50
2022-08-22T14:21:40.501Z,28.10
2022-08-22T14:24:18.928Z,28.10
2022-08-22T14:27:08.747Z,28.20
2022-08-22T14:29:50.240Z,28.30
2022-08-22T14:32:25.868Z,27.60
2022-08-22T14:35:23.109Z,28.00
2022-08-22T14:37:54.424Z,28.10
2022-08-22T14:40:32.940Z,28.40
2022-08-22T14:43:29.328Z,28.00
2022-08-22T14:46:03.686Z,28.10
2022-08-22T14:48:40.655Z,28.00
2022-08-22T14:51:26.560Z,27.90
2022-08-22T14:54:21.143Z,27.90
2022-08-22T14:56:52.183Z,27.90
2022-08-22T14:59:45.594Z,27.90
2022-08-22T15:02:28.262Z,28.00
2022-08-22T15:04:58.399Z,28.00
2022-08-22T15:07:32.503Z,27.90
2022-08-22T15:10:34.279Z,27.30
2022-08-22T15:13:07.885Z,27.50
2022-08-22T15:15:52.922Z,27.80
2022-08-22T15:18:28.345Z,27.80
2022-08-22T15:21:09.962Z,27.90
2022-08-22T15:23:45.353Z,27.80
2022-08-22T15:26:22.818Z,27.40
2022-08-22T15:28:58.024Z,27.70
2022-08-22T15:34:06.654Z,27.70
2022-08-22T15:36:34.321Z,27.10
2022-08-22T15:39:28.443Z,26.90
2022-08-22T15:47:24.257Z,27.00
2022-08-22T15:50:08.572Z,28.00
2022-08-22T15:53:13.455Z,27.30
2022-08-22T15:56:05.472Z,27.60
2022-08-22T15:58:40.460Z,27.90
2022-08-22T16:01:23.978Z,27.40
2022-08-22T16:04:12.951Z,27.80
2022-08-22T16:06:54.017Z,26.80
2022-08-22T16:09:43.403Z,27.60
2022-08-22T16:12:31.835Z,27.30
2022-08-22T16:15:01.069Z,27.20
2022-08-22T16:17:30.907Z,27.20
2022-08-22T16:20:19.639Z,27.20
2022-08-22T16:22:56.852Z,27.00
2022-08-22T16:25:45.699Z,27.30
2022-08-22T16:28:56.972Z,27.10
2022-08-22T16:31:30.085Z,26.80
2022-08-22T16:34:19.061Z,26.90
2022-08-22T16:36:52.564Z,26.80
2022-08-22T16:39:22.522Z,27.20
2022-08-22T16:44:28.867Z,26.40
2022-08-22T16:47:18.332Z,26.80
2022-08-22T16:49:51.661Z,26.10
2022-08-22T16:52:21.768Z,27.10
2022-08-22T16:54:51.433Z,26.60
2022-08-22T16:57:18.763Z,26.30
2022-08-22T17:00:12.209Z,25.90
2022-08-22T17:02:55.158Z,26.50
2022-08-22T17:05:32.618Z,25.70
2022-08-22T17:08:29.490Z,26.30
2022-08-22T17:11:18.350Z,26.20
2022-08-22T17:14:23.544Z,26.20
2022-08-22T17:17:11.221Z,26.30
2022-08-22T17:20:02.033Z,26.20
2022-08-22T17:22:37.741Z,26.10
2022-08-22T17:25:17.006Z,26.00
2022-08-22T17:27:49.106Z,26.00
2022-08-22T17:30:42.394Z,25.80
2022-08-22T17:33:15.628Z,25.90
2022-08-22T17:35:58.886Z,25.90
2022-08-22T17:38:34.980Z,25.90
2022-08-22T17:41:34.026Z,26.10
2022-08-22T17:44:17.901Z,25.80
2022-08-22T17:47:01.810Z,25.80
2022-08-22T17:49:41.429Z,25.70
2022-08-22T17:52:31.626Z,25.70
2022-08-22T17:55:04.581Z,26.40
2022-08-22T17:57:31.996Z,25.80
2022-08-22T18:00:11.722Z,26.10
2022-08-22T18:02:55.895Z,25.70
2022-08-22T18:05:46.255Z,26.40
2022-08-22T18:09:13.503Z,25.70
2022-08-22T18:11:40.257Z,25.60
2022-08-22T18:14:38.477Z,25.60
2022-08-22T18:17:30.610Z,23.80
2022-08-22T18:20:46.069Z,25.50
2022-08-22T18:23:36.319Z,25.50
2022-08-22T18:26:38.484Z,26.10
2022-08-22T18:29:31.772Z,25.50
2022-08-22T18:32:28.496Z,25.30
2022-08-22T18:35:16.787Z,25.40
2022-08-22T18:37:55.662Z,25.40
2022-08-22T18:40:50.237Z,24.90
2022-08-22T18:43:24.260Z,25.30
2022-08-22T18:48:59.354Z,25.90
2022-08-22T18:51:38.510Z,25.20
2022-08-22T18:56:48.504Z,25.20
2022-08-22T18:59:25.042Z,24.90
2022-08-22T19:04:31.567Z,25.60
2022-08-22T19:07:56.604Z,24.90
2022-08-22T19:10:29.817Z,24.90
2022-08-22T19:13:15.324Z,24.90
2022-08-22T19:15:57.193Z,23.40
2022-08-22T19:18:56.063Z,24.80
2022-08-22T19:21:44.792Z,24.50
2022-08-22T19:24:34.831Z,24.10
2022-08-22T19:27:10.607Z,24.30
2022-08-22T19:32:12.951Z,24.80
2022-08-22T19:34:47.877Z,24.30
2022-08-22T19:37:30.455Z,24.70
2022-08-22T19:40:05.575Z,24.80
2022-08-22T19:42:36.759Z,24.70
2022-08-22T19:45:21.454Z,24.70
2022-08-22T19:48:13.885Z,24.70
2022-08-22T19:50:43.339Z,24.90
2022-08-22T19:53:48.096Z,25.00
2022-08-22T19:56:27.165Z,24.60
2022-08-22T19:59:05.906Z,24.70
2022-08-22T20:04:22.010Z,24.60
2022-08-22T20:07:15.625Z,24.40
2022-08-22T20:09:59.681Z,25.10
2022-08-22T20:12:29.738Z,24.50
2022-08-22T20:23:07.128Z,24.30
2022-08-22T20:25:53.101Z,24.20
2022-08-22T20:28:29.804Z,24.30
2022-08-22T20:31:02.586Z,24.10
2022-08-22T20:33:36.993Z,24.00
2022-08-22T20:36:18.565Z,24.50
2022-08-22T20:39:01.949Z,24.70
2022-08-22T20:41:29.091Z,24.10
2022-08-22T20:43:58.399Z,24.60
2022-08-22T20:46:57.997Z,24.00
2022-08-22T20:49:31.741Z,23.80
2022-08-22T20:52:06.028Z,23.80
2022-08-22T20:54:40.661Z,23.80
2022-08-22T20:57:18.328Z,23.70
2022-08-22T20:59:58.528Z,23.50
2022-08-22T21:02:35.596Z,23.60
2022-08-22T21:05:07.764Z,23.60
2022-08-22T21:07:47.246Z,23.50
2022-08-22T21:10:36.441Z,23.60
2022-08-22T21:13:17.359Z,23.80
2022-08-22T21:16:08.488Z,23.50
2022-08-22T21:18:42.025Z,23.40
2022-08-22T21:21:18.287Z,23.20
2022-08-22T21:23:50.495Z,23.40
2022-08-22T21:26:32.001Z,23.80
2022-08-22T21:29:03.641Z,23.60
2022-08-22T21:31:41.373Z,23.30
2022-08-22T21:34:15.182Z,23.20
2022-08-22T21:36:42.628Z,23.60
2022-08-22T21:39:37.989Z,22.90
2022-08-22T21:42:33.725Z,23.20
2022-08-22T21:45:04.042Z,23.20
2022-08-22T21:47:34.732Z,23.10
2022-08-22T21:50:26.156Z,23.10
2022-08-22T21:52:56.354Z,23.40
2022-08-22T21:58:34.160Z,23.00
2022-08-22T22:01:28.177Z,23.00
2022-08-22T22:13:47.484Z,23.40
2022-08-22T22:16:22.399Z,23.40
2022-08-22T22:18:49.567Z,23.80
2022-08-22T22:28:42.853Z,23.00
2022-08-22T22:33:40.356Z,22.90
2022-08-22T22:36:21.572Z,22.80
2022-08-22T22:43:47.590Z,22.70
2022-08-22T22:51:11.611Z,22.40
2022-08-22T22:53:43.175Z,22.30
2022-08-22T22:56:14.407Z,22.20
2022-08-22T22:58:43.882Z,21.90
2022-08-22T23:01:18.825Z,22.10
2022-08-22T23:03:47.000Z,21.60
2022-08-22T23:06:20.905Z,21.90
2022-08-22T23:11:22.376Z,21.80
2022-08-22T23:13:50.061Z,21.80
2022-08-22T23:16:20.522Z,21.50
2022-08-22T23:18:48.271Z,21.90
2022-08-22T23:23:43.116Z,21.30
2022-08-22T23:26:10.683Z,21.60
2022-08-22T23:31:16.764Z,21.50
2022-08-22T23:33:45.858Z,21.60
2022-08-22T23:36:19.654Z,21.50
2022-08-22T23:41:20.726Z,21.50
2022-08-22T23:43:50.717Z,21.20
2022-08-22T23:46:20.725Z,21.60
2022-08-22T23:48:48.222Z,21.90
2022-08-22T23:51:17.392Z,21.70
2022-08-22T23:56:23.520Z,21.40
2022-08-22T23:58:50.670Z,21.40
